Time;durP1;ratioP1;P1;durP2;ratioP2;P2;SDS_P1;SDS_P2;PMS_P1;PMS_P2;Temp;Humidity;BMP_temperature;BMP_pressure;BME280_temperature;BME280_humidity;BME280_pressure;Samples;Min_cycle;Max_cycle;Signal;HPM_P1;HPM_P2
2022/11/01 00:01:23;;;;;;;9.65;6.50;;;;;;;14.17;48.48;100165.25;4993091;28;20018;-79
2022/11/01 00:03:48;;;;;;;8.70;5.97;;;;;;;14.24;48.34;100198.84;4993036;28;20026;-79
2022/11/01 00:06:14;;;;;;;9.40;5.97;;;;;;;14.43;48.40;100210.75;4993047;28;20018;-79
2022/11/01 00:08:39;;;;;;;8.00;5.57;;;;;;;13.89;48.60;100133.22;4992827;28;20047;-79
2022/11/01 00:11:13;;;;;;;16.17;6.55;;;;;;;14.69;48.32;100259.91;4992865;28;20467;-80
2022/11/01 00:13:39;;;;;;;7.65;5.35;;;;;;;14.58;48.73;100248.75;4992947;28;20514;-79
2022/11/01 00:16:05;;;;;;;9.90;5.80;;;;;;;14.70;48.47;100275.66;4992755;28;20026;-79
2022/11/01 00:18:30;;;;;;;9.60;6.18;;;;;;;14.48;48.31;100226.13;4991483;28;20038;-80
2022/11/01 00:20:55;;;;;;;9.50;6.22;;;;;;;14.68;48.36;100253.75;4992699;28;20022;-79
2022/11/01 00:23:21;;;;;;;7.70;5.32;;;;;;;14.37;48.43;100229.25;4991198;28;20029;-79
2022/11/01 00:25:46;;;;;;;8.77;5.28;;;;;;;13.85;48.35;100116.84;4992590;28;20033;-80
2022/11/01 00:28:12;;;;;;;9.73;5.93;;;;;;;13.99;48.38;100169.09;4992634;28;20037;-79
2022/11/01 00:30:38;;;;;;;9.55;6.10;;;;;;;14.66;48.63;100260.28;4992427;28;20688;-79
2022/11/01 00:33:04;;;;;;;8.82;6.05;;;;;;;14.25;48.72;100211.13;4992324;28;20499;-79
2022/11/01 00:35:35;;;;;;;8.07;5.45;;;;;;;14.08;48.77;100206.16;4992372;28;20023;-80
2022/11/01 00:38:02;;;;;;;11.35;6.25;;;;;;;13.74;48.93;100146.50;4992769;28;20026;-79
2022/11/01 00:40:27;;;;;;;7.95;5.57;;;;;;;14.43;49.06;100260.41;4992471;28;20499;-79
2022/11/01 00:42:53;;;;;;;7.47;5.45;;;;;;;14.45;49.08;100261.88;4992230;28;20030;-80
2022/11/01 00:45:18;;;;;;;8.93;5.55;;;;;;;14.06;48.80;100213.50;4992505;28;20022;-79
2022/11/01 00:47:47;;;;;;;10.18;5.53;;;;;;;14.08;49.36;100206.16;4992412;28;20018;-79
2022/11/01 00:50:13;;;;;;;8.15;5.50;;;;;;;13.72;49.19;100153.81;4992223;28;20034;-79
2022/11/01 00:52:39;;;;;;;6.57;5.57;;;;;;;13.99;49.53;100214.22;4991846;28;20030;-79
2022/11/01 00:55:04;;;;;;;9.13;5.90;;;;;;;14.04;49.55;100218.16;4990951;28;20462;-79
2022/11/01 00:57:30;;;;;;;11.15;5.15;;;;;;;14.06;49.82;100216.97;4990957;28;20038;-79
2022/11/01 00:59:55;;;;;;;7.65;4.97;;;;;;;14.28;49.46;100249.78;4992390;28;20510;-79
2022/11/01 01:02:20;;;;;;;9.68;5.70;;;;;;;13.83;49.66;100174.59;4991831;28;20029;-79
2022/11/01 01:04:47;;;;;;;8.68;5.80;;;;;;;13.85;49.55;100187.69;4990525;28;20046;-79
2022/11/01 01:07:13;;;;;;;7.03;5.47;;;;;;;13.58;49.60;100138.72;4991783;28;20077;-79
2022/11/01 01:09:38;;;;;;;9.70;5.68;;;;;;;13.82;49.78;100196.84;4991836;28;20057;-79
2022/11/01 01:12:04;;;;;;;7.07;5.30;;;;;;;14.33;49.57;100263.31;4991729;28;20041;-79
2022/11/01 01:14:30;;;;;;;7.60;4.88;;;;;;;11.83;49.70;99855.53;4991768;28;20042;-80
2022/11/01 01:16:55;;;;;;;6.72;5.13;;;;;;;14.06;49.55;100226.75;4991816;28;20455;-79
2022/11/01 01:19:21;;;;;;;10.10;4.72;;;;;;;14.05;49.76;100222.47;4991757;28;20048;-79
2022/11/01 01:21:46;;;;;;;7.35;5.03;;;;;;;13.75;49.82;100172.03;4992057;28;20033;-79
2022/11/01 01:24:11;;;;;;;7.22;5.53;;;;;;;13.75;49.67;100195.91;4990582;28;20030;-79
2022/11/01 01:26:37;;;;;;;7.22;4.95;;;;;;;13.76;49.78;100173.69;4991898;28;20093;-79
2022/11/01 01:29:02;;;;;;;8.32;5.45;;;;;;;13.54;49.76;100148.88;4991806;28;20395;-79
2022/11/01 01:31:28;;;;;;;8.13;5.03;;;;;;;13.53;49.80;100149.88;4991933;28;20027;-79
2022/11/01 01:33:53;;;;;;;6.25;4.90;;;;;;;14.24;49.86;100246.66;4991901;28;20529;-79
2022/11/01 01:36:19;;;;;;;7.93;5.03;;;;;;;13.69;50.00;100172.75;4991953;28;20018;-80
2022/11/01 01:38:44;;;;;;;7.50;5.38;;;;;;;13.50;49.88;100130.84;4991755;28;20037;-79
2022/11/01 01:43:54;;;;;;;7.90;5.40;;;;;;;13.89;50.32;100207.53;4991777;28;20038;-79
2022/11/01 01:46:19;;;;;;;8.90;4.97;;;;;;;13.80;50.33;100196.19;4991613;28;20042;-79
2022/11/01 01:48:49;;;;;;;7.45;5.50;;;;;;;13.39;50.43;100136.63;4991543;28;20023;-79
2022/11/01 01:51:18;;;;;;;8.38;5.63;;;;;;;13.62;50.33;100187.78;4991620;28;20037;-79
2022/11/01 01:53:48;;;;;;;7.65;5.10;;;;;;;13.75;50.40;100222.47;4990382;28;20025;-79
2022/11/01 01:56:27;;;;;;;8.82;5.13;;;;;;;13.99;50.59;100254.06;4991770;28;20034;-79
2022/11/01 01:59:00;;;;;;;7.75;5.70;;;;;;;13.21;50.55;100132.44;5006682;28;20477;-79
2022/11/01 02:01:26;;;;;;;7.88;5.25;;;;;;;13.21;50.58;100124.50;4991590;28;20022;-79
2022/11/01 02:03:52;;;;;;;6.55;4.63;;;;;;;13.63;50.73;100198.19;4991430;28;20027;-79
2022/11/01 02:06:20;;;;;;;6.28;4.57;;;;;;;13.96;51.04;100253.59;4995091;28;20097;-79
2022/11/01 02:08:50;;;;;;;6.72;4.80;;;;;;;13.95;51.06;100251.94;4995294;28;20125;-79
2022/11/01 02:11:16;;;;;;;7.00;4.70;;;;;;;13.88;51.04;100238.56;4995153;28;20022;-79
2022/11/01 02:13:42;;;;;;;10.02;4.82;;;;;;;13.83;50.58;100232.16;4994864;28;20105;-79
2022/11/01 02:16:38;;;;;;;5.97;5.05;;;;;;;13.97;50.95;100255.25;4994997;28;20538;-79
2022/11/01 02:19:27;;;;;;;8.40;5.18;;;;;;;13.96;50.98;100257.06;4994946;28;20029;-79
2022/11/01 02:22:25;;;;;;;7.93;5.53;;;;;;;13.93;51.24;100259.28;4995097;28;20026;-79
2022/11/01 02:25:21;;;;;;;9.82;4.97;;;;;;;13.89;51.14;100264.13;4995180;28;20014;-79
2022/11/01 02:28:21;;;;;;;8.38;5.40;;;;;;;13.79;50.76;100270.69;4994952;28;20057;-79
2022/11/01 02:31:10;;;;;;;7.38;5.65;;;;;;;13.65;51.21;100264.34;4994832;28;20077;-79
2022/11/01 02:33:44;;;;;;;6.90;5.45;;;;;;;13.57;51.37;100267.09;4994654;28;20093;-79
2022/11/01 02:36:36;;;;;;;9.15;5.22;;;;;;;12.72;51.78;100154.03;4994744;28;20058;-79
2022/11/01 02:39:13;;;;;;;7.43;5.63;;;;;;;13.07;51.53;100227.84;4993433;28;20127;-79
2022/11/01 02:41:46;;;;;;;7.80;5.03;;;;;;;11.95;51.35;100038.53;4993416;28;20031;-79
2022/11/01 02:44:17;;;;;;;8.25;5.07;;;;;;;13.32;51.69;100269.91;4994592;28;20034;-79
2022/11/01 02:47:00;;;;;;;10.40;5.70;;;;;;;13.20;51.59;100250.13;4994533;28;20030;-79
2022/11/01 02:49:37;;;;;;;11.05;5.80;;;;;;;13.19;51.78;100269.69;4994510;28;20495;-79
2022/11/01 02:52:05;;;;;;;6.15;5.40;;;;;;;12.69;52.11;100201.25;4994327;28;20032;-79
2022/11/01 02:54:37;;;;;;;7.80;4.90;;;;;;;12.46;51.87;100158.84;4993115;28;20392;-79
2022/11/01 02:57:25;;;;;;;8.15;5.80;;;;;;;12.70;52.23;100211.69;4994270;28;20019;-79
2022/11/01 02:59:51;;;;;;;7.00;5.75;;;;;;;12.71;52.29;100218.63;4994184;28;20495;-79
2022/11/01 03:02:40;;;;;;;10.05;5.85;;;;;;;13.16;52.49;100285.91;4992980;28;20025;-79
2022/11/01 03:05:07;;;;;;;10.38;6.65;;;;;;;13.10;52.17;100288.44;4992954;28;20030;-79
2022/11/01 03:07:33;;;;;;;9.73;6.57;;;;;;;12.65;52.14;100218.50;4994180;28;20563;-79
2022/11/01 03:10:00;;;;;;;10.70;5.97;;;;;;;13.10;52.40;100310.50;4994580;28;20022;-79
2022/11/01 03:12:31;;;;;;;9.73;6.80;;;;;;;12.69;52.19;100241.84;4993917;28;20109;-79
2022/11/01 03:15:19;;;;;;;8.30;6.40;;;;;;;11.04;52.29;100002.00;4993572;28;20050;-79
2022/11/01 03:18:17;;;;;;;9.75;6.25;;;;;;;12.88;52.43;100284.78;4993085;28;20022;-79
2022/11/01 03:20:51;;;;;;;7.97;5.88;;;;;;;12.93;52.65;100280.59;4994134;28;20038;-79
2022/11/01 03:23:29;;;;;;;9.23;6.47;;;;;;;12.89;52.61;100270.53;4992444;28;20458;-79
2022/11/01 03:25:57;;;;;;;9.05;6.95;;;;;;;12.52;52.67;100245.53;4993726;28;20029;-79
2022/11/01 03:28:35;;;;;;;8.77;5.90;;;;;;;12.51;52.38;100225.34;4993596;28;20014;-79
2022/11/01 03:31:10;;;;;;;8.63;5.68;;;;;;;11.85;52.42;100141.91;4993624;28;20062;-79
2022/11/01 03:33:41;;;;;;;12.15;6.03;;;;;;;12.04;52.28;100173.28;4993812;28;20488;-79
2022/11/01 03:36:11;;;;;;;6.70;5.88;;;;;;;12.91;52.40;100310.94;4993722;28;20058;-79
2022/11/01 03:38:39;;;;;;;12.07;6.65;;;;;;;12.74;52.21;100283.69;4992388;28;20026;-79
2022/11/01 03:41:10;;;;;;;9.82;6.35;;;;;;;12.39;52.12;100219.63;4992254;28;20022;-79
2022/11/01 03:43:36;;;;;;;8.00;6.20;;;;;;;12.21;52.17;100184.63;4993625;28;20412;-80
2022/11/01 03:46:02;;;;;;;10.05;6.55;;;;;;;12.23;52.11;100205.63;4993486;28;20069;-79
2022/11/01 03:48:27;;;;;;;8.40;5.90;;;;;;;12.21;52.00;100213.75;4993471;28;20018;-79
2022/11/01 03:50:56;;;;;;;8.32;6.00;;;;;;;11.22;51.84;100020.31;4992024;28;20045;-79
2022/11/01 03:53:22;;;;;;;11.32;6.10;;;;;;;12.88;51.97;100274.19;4993409;28;20029;-79
2022/11/01 03:55:49;;;;;;;7.75;5.60;;;;;;;13.05;52.02;100295.09;4993396;28;20022;-79
2022/11/01 03:58:14;;;;;;;8.50;6.03;;;;;;;12.59;51.73;100248.31;4993330;28;20033;-79
2022/11/01 04:00:42;;;;;;;7.88;5.63;;;;;;;13.07;51.77;100294.09;4993499;28;20026;-79
2022/11/01 04:03:09;;;;;;;11.25;6.68;;;;;;;13.09;51.79;100300.88;4993437;28;20050;-79
2022/11/01 04:05:36;;;;;;;9.00;6.72;;;;;;;13.14;51.84;100301.19;4993590;28;20023;-80
2022/11/01 04:08:01;;;;;;;12.13;6.38;;;;;;;12.90;52.00;100267.72;4992594;28;20046;-80
2022/11/01 04:10:28;;;;;;;8.98;6.20;;;;;;;12.87;52.39;100276.00;4991532;28;20019;-79
2022/11/01 04:12:53;;;;;;;9.70;6.28;;;;;;;13.02;52.40;100318.50;4992822;28;20073;-79
2022/11/01 04:21:02;;;;;;;8.00;6.75;;;;;;;12.59;53.08;100293.34;4992910;28;20471;-79
2022/11/01 04:23:27;;;;;;;10.13;6.05;;;;;;;11.78;52.97;100172.69;5007507;28;20506;-79
2022/11/01 04:25:52;;;;;;;7.90;6.38;;;;;;;12.35;53.18;100299.56;4992510;28;20097;-79
2022/11/01 04:28:18;;;;;;;9.38;5.90;;;;;;;12.09;53.15;100245.06;4991969;28;20026;-79
2022/11/01 04:30:43;;;;;;;9.90;6.93;;;;;;;12.14;53.30;100251.66;4992526;28;20029;-80
2022/11/01 04:33:09;;;;;;;9.50;6.07;;;;;;;12.56;53.42;100315.72;4992694;28;20097;-79
2022/11/01 04:35:36;;;;;;;9.85;6.72;;;;;;;11.79;53.79;100179.63;4991341;28;20033;-79
2022/11/01 04:38:01;;;;;;;8.25;6.85;;;;;;;12.30;53.54;100256.91;4992501;28;20026;-79
2022/11/01 04:40:26;;;;;;;9.50;7.13;;;;;;;12.41;53.56;100275.06;4992557;28;20025;-79
2022/11/01 04:42:52;;;;;;;9.80;7.25;;;;;;;12.49;53.57;100290.91;4992319;28;20026;-80
2022/11/01 04:45:18;;;;;;;10.85;7.07;;;;;;;12.70;53.08;100315.03;4992339;28;20027;-79
2022/11/01 04:47:51;;;;;;;8.65;6.53;;;;;;;12.68;53.42;100326.78;4992442;28;20030;-79
2022/11/01 04:50:19;;;;;;;9.98;6.82;;;;;;;12.66;53.42;100321.66;4992373;28;20106;-79
2022/11/01 04:52:46;;;;;;;9.95;7.53;;;;;;;12.20;53.53;100254.44;4990992;28;20419;-79
2022/11/01 04:55:12;;;;;;;12.00;8.35;;;;;;;12.71;53.33;100331.75;4992220;28;20508;-79
2022/11/01 04:57:40;;;;;;;11.00;7.82;;;;;;;12.50;53.46;100300.50;4992185;28;20037;-79
2022/11/01 05:00:10;;;;;;;11.32;8.23;;;;;;;11.93;53.27;100205.41;4990970;28;20026;-79
2022/11/01 05:02:36;;;;;;;14.13;6.55;;;;;;;12.64;53.34;100330.78;4992174;28;20031;-79
2022/11/01 05:05:02;;;;;;;9.85;6.35;;;;;;;11.55;53.81;100163.81;4992350;28;20033;-79
2022/11/01 05:07:27;;;;;;;9.18;6.32;;;;;;;11.36;53.39;100149.13;4992050;28;20042;-80
2022/11/01 05:09:53;;;;;;;11.90;6.57;;;;;;;12.02;53.60;100240.63;4991996;28;20546;-80
2022/11/01 05:12:18;;;;;;;12.05;7.35;;;;;;;11.87;53.74;100221.94;4992198;28;20030;-79
2022/11/01 05:14:43;;;;;;;10.98;8.05;;;;;;;12.22;53.56;100278.09;4991931;28;20022;-79
2022/11/01 05:17:09;;;;;;;13.40;7.57;;;;;;;12.37;53.67;100310.81;4990779;28;20503;-79
2022/11/01 05:19:34;;;;;;;10.75;7.25;;;;;;;11.86;53.54;100246.75;4992053;28;20089;-79
2022/11/01 05:22:00;;;;;;;13.13;7.53;;;;;;;12.52;53.45;100337.41;4992033;28;20057;-79
2022/11/01 05:24:25;;;;;;;10.15;7.22;;;;;;;12.50;53.96;100356.13;4990630;28;20423;-79
2022/11/01 05:26:50;;;;;;;10.07;7.20;;;;;;;12.48;54.25;100342.22;4991904;28;20026;-79
2022/11/01 05:29:16;;;;;;;13.00;7.97;;;;;;;12.44;54.08;100351.50;4990658;28;20407;-79
2022/11/01 05:31:41;;;;;;;10.65;8.23;;;;;;;12.46;54.14;100346.88;4991753;28;20033;-80
2022/11/01 05:34:07;;;;;;;11.38;7.28;;;;;;;11.91;54.35;100278.84;4990412;28;20018;-79
2022/11/01 05:36:32;;;;;;;14.10;7.57;;;;;;;10.93;54.55;100115.97;4991759;28;20657;-79
2022/11/01 05:38:58;;;;;;;10.45;7.47;;;;;;;12.07;54.32;100310.56;4993392;28;20022;-79
2022/11/01 05:41:24;;;;;;;13.65;8.02;;;;;;;12.39;54.29;100340.59;4995595;28;20031;-79
2022/11/01 05:43:50;;;;;;;16.15;8.45;;;;;;;12.35;54.13;100324.22;4994186;28;20026;-79
2022/11/01 05:46:16;;;;;;;13.10;8.00;;;;;;;11.56;53.78;100189.25;4995601;28;20080;-79
2022/11/01 05:48:41;;;;;;;23.77;9.20;;;;;;;12.68;53.78;100364.72;4995628;28;20019;-79
2022/11/01 05:51:08;;;;;;;12.82;8.65;;;;;;;11.90;54.05;100216.34;4995372;28;20026;-79
2022/11/01 05:53:34;;;;;;;15.23;10.70;;;;;;;12.74;54.03;100352.59;4995617;28;20411;-79
2022/11/01 05:55:59;;;;;;;17.88;11.32;;;;;;;12.48;53.58;100349.34;4995523;28;20030;-80
2022/11/01 05:58:25;;;;;;;15.50;11.10;;;;;;;12.40;53.55;100302.53;4995379;28;20406;-79
2022/11/01 06:00:57;;;;;;;15.25;10.63;;;;;;;12.37;53.25;100279.88;4995395;28;20034;-79
2022/11/01 06:03:22;;;;;;;16.35;10.02;;;;;;;12.06;53.22;100242.75;4995220;28;20022;-79
2022/11/01 06:05:48;;;;;;;14.90;10.75;;;;;;;12.48;53.47;100289.25;4994154;28;20427;-79
2022/11/01 06:08:13;;;;;;;13.00;9.35;;;;;;;12.55;53.42;100298.16;4995097;28;20518;-79
2022/11/01 06:10:39;;;;;;;12.05;8.32;;;;;;;12.34;53.13;100248.44;4995312;28;20022;-79
2022/11/01 06:13:04;;;;;;;14.40;8.93;;;;;;;12.59;53.59;100291.53;4995233;28;20022;-79
2022/11/01 06:15:29;;;;;;;12.60;9.57;;;;;;;12.95;53.19;100328.16;4995187;28;20491;-79
2022/11/01 06:17:57;;;;;;;15.45;9.98;;;;;;;13.27;53.40;100375.72;4995250;28;20050;-79
2022/11/01 06:20:24;;;;;;;13.38;9.40;;;;;;;13.00;52.90;100342.53;4995015;28;20037;-80
2022/11/01 06:22:49;;;;;;;17.92;10.73;;;;;;;12.01;52.92;100189.50;4993585;28;20030;-79
2022/11/01 06:25:15;;;;;;;13.60;9.38;;;;;;;12.89;53.01;100318.25;4994649;28;20471;-79
2022/11/01 06:27:40;;;;;;;16.48;9.98;;;;;;;12.55;52.80;100223.19;4994536;28;20396;-79
2022/11/01 06:30:07;;;;;;;21.45;10.98;;;;;;;12.80;52.92;100251.22;4993281;28;20113;-79
2022/11/01 06:32:32;;;;;;;16.67;10.20;;;;;;;13.23;52.90;100309.94;4994663;28;20034;-79
2022/11/01 06:34:57;;;;;;;15.38;10.10;;;;;;;13.22;52.50;100293.19;4994719;28;20411;-79
2022/11/01 06:37:23;;;;;;;19.48;10.98;;;;;;;12.95;52.77;100251.28;4994715;28;20081;-80
2022/11/01 06:39:48;;;;;;;14.85;10.27;;;;;;;13.90;52.78;100376.44;4993389;28;20033;-79
2022/11/01 06:42:14;;;;;;;14.00;9.60;;;;;;;13.94;52.68;100378.56;4994538;28;20030;-79
2022/11/01 06:44:39;;;;;;;14.57;10.23;;;;;;;13.12;52.85;100238.72;4994407;28;20030;-79
2022/11/01 06:47:05;;;;;;;16.23;10.82;;;;;;;13.59;52.76;100303.06;4994455;28;20026;-79
2022/11/01 06:49:30;;;;;;;16.73;12.25;;;;;;;13.95;52.80;100343.03;4994366;28;20034;-79
2022/11/01 06:51:56;;;;;;;14.27;11.02;;;;;;;13.70;52.75;100296.50;4992651;28;20037;-79
2022/11/01 06:54:22;;;;;;;12.35;11.02;;;;;;;14.03;52.60;100322.72;4994356;28;20541;-79
2022/11/01 06:56:48;;;;;;;14.38;11.30;;;;;;;13.99;52.47;100307.16;5002216;28;20507;-79
2022/11/01 06:59:15;;;;;;;17.95;11.32;;;;;;;13.45;52.43;100202.22;5012406;28;20065;-79
2022/11/01 07:01:40;;;;;;;18.67;10.88;;;;;;;14.21;52.60;100321.41;5004590;28;20026;-79
2022/11/01 07:04:06;;;;;;;14.25;10.25;;;;;;;14.32;52.53;100320.94;5002064;28;20045;-80
2022/11/01 07:06:31;;;;;;;14.40;9.98;;;;;;;14.45;52.67;100338.09;5011143;28;20022;-79
2022/11/01 07:09:00;;;;;;;14.15;10.82;;;;;;;14.57;52.45;100349.91;5013068;28;20046;-79
2022/11/01 07:11:26;;;;;;;20.42;10.45;;;;;;;14.61;52.48;100325.44;5012022;28;20052;-79
2022/11/01 07:13:51;;;;;;;18.95;13.90;;;;;;;14.07;52.75;100231.06;5013373;28;20109;-79
2022/11/01 07:16:16;;;;;;;20.73;13.70;;;;;;;15.06;52.36;100379.41;4999324;28;20499;-79
2022/11/01 07:18:43;;;;;;;19.15;11.27;;;;;;;14.85;52.66;100334.13;4992636;28;20077;-79
2022/11/01 07:21:08;;;;;;;17.33;11.82;;;;;;;14.93;52.37;100326.06;4994062;28;20415;-79
2022/11/01 07:23:34;;;;;;;18.10;11.27;;;;;;;14.81;52.82;100306.25;5002041;28;20109;-79
2022/11/01 07:25:59;;;;;;;16.42;10.60;;;;;;;14.64;52.22;100252.50;5012819;28;20026;-80
2022/11/01 07:28:25;;;;;;;20.38;10.77;;;;;;;15.17;52.15;100325.72;5009698;28;20088;-79
2022/11/01 07:30:52;;;;;;;11.30;9.00;;;;;;;15.33;52.24;100358.41;5009648;28;20113;-79
2022/11/01 07:33:18;;;;;;;14.18;9.18;;;;;;;15.41;51.76;100339.66;5009124;28;20050;-79
2022/11/01 07:35:43;;;;;;;14.75;8.57;;;;;;;15.54;51.82;100345.94;5013012;28;20473;-79
2022/11/01 07:38:09;;;;;;;13.05;8.32;;;;;;;15.85;51.73;100374.94;5012879;28;20025;-79
2022/11/01 07:40:36;;;;;;;18.85;8.00;;;;;;;15.87;51.77;100377.41;5012764;28;20025;-79
2022/11/01 07:43:02;;;;;;;12.38;7.55;;;;;;;15.71;51.74;100325.25;5012394;28;20084;-79
2022/11/01 07:45:30;;;;;;;12.50;7.45;;;;;;;15.37;51.62;100264.72;5004334;28;20022;-79
2022/11/01 07:48:09;;;;;;;12.77;7.82;;;;;;;15.86;51.56;100333.16;5003995;28;20025;-79
2022/11/01 07:50:35;;;;;;;12.30;7.88;;;;;;;15.92;51.06;100335.03;5007115;28;20491;-80
2022/11/01 07:53:03;;;;;;;13.90;7.85;;;;;;;16.30;51.10;100362.16;5009156;28;20037;-80
2022/11/01 07:55:29;;;;;;;14.10;7.53;;;;;;;15.66;51.20;100247.81;5003759;28;20472;-80
2022/11/01 07:57:55;;;;;;;13.65;8.80;;;;;;;16.51;51.07;100370.09;4994407;28;20064;-80
2022/11/01 08:00:20;;;;;;;16.25;10.68;;;;;;;16.45;50.77;100359.41;5002989;28;20018;-79
2022/11/01 08:02:46;;;;;;;13.23;9.98;;;;;;;16.33;50.99;100318.31;4989104;28;20041;-79
2022/11/01 08:05:11;;;;;;;13.95;9.45;;;;;;;16.49;50.75;100336.66;5008526;28;20488;-79
2022/11/01 08:07:40;;;;;;;11.60;6.18;;;;;;;16.50;50.57;100325.81;5010241;28;20099;-80
2022/11/01 08:10:07;;;;;;;12.55;5.50;;;;;;;16.64;50.04;100345.34;4999912;28;20056;-80
2022/11/01 08:12:33;;;;;;;8.57;5.53;;;;;;;16.09;49.77;100221.84;4992479;28;20045;-80
2022/11/01 08:14:59;;;;;;;13.02;8.45;;;;;;;16.86;49.88;100327.44;4991802;28;20550;-79
2022/11/01 08:17:24;;;;;;;10.27;5.60;;;;;;;16.38;49.86;100236.78;4999706;28;20034;-80
2022/11/01 08:19:50;;;;;;;7.93;6.30;;;;;;;16.96;49.53;100319.03;4997304;28;20159;-80
2022/11/01 08:22:15;;;;;;;13.82;10.50;;;;;;;17.31;49.62;100362.47;4991784;28;20148;-80
2022/11/01 08:24:41;;;;;;;12.23;8.18;;;;;;;16.73;49.32;100250.03;4991877;28;20072;-80
2022/11/01 08:27:06;;;;;;;11.63;9.00;;;;;;;17.47;49.10;100354.91;5000042;28;20041;-80
2022/11/01 08:29:31;;;;;;;13.68;7.97;;;;;;;17.11;48.94;100290.38;5011460;28;20104;-80
2022/11/01 08:31:57;;;;;;;12.40;5.53;;;;;;;17.06;48.57;100258.94;5011009;28;20109;-79
2022/11/01 08:34:22;;;;;;;17.30;10.30;;;;;;;17.66;48.57;100353.31;5007101;28;20072;-80
2022/11/01 08:36:48;;;;;;;12.65;5.97;;;;;;;17.46;48.34;100309.72;5008174;28;20419;-80
2022/11/01 08:39:13;;;;;;;10.27;5.65;;;;;;;17.58;48.29;100321.44;4992007;28;20035;-79
2022/11/01 08:41:38;;;;;;;9.23;5.18;;;;;;;17.79;48.03;100347.16;5003499;28;20163;-80
2022/11/01 08:44:04;;;;;;;12.70;5.57;;;;;;;17.72;47.75;100323.13;5006454;28;20491;-79
2022/11/01 08:46:30;;;;;;;11.73;6.00;;;;;;;17.96;47.59;100335.06;5009300;28;20036;-79
2022/11/01 08:48:58;;;;;;;14.50;8.10;;;;;;;16.15;47.26;100045.22;5010431;28;20141;-79
2022/11/01 08:51:24;;;;;;;14.57;9.15;;;;;;;17.85;47.58;100281.44;5010314;28;20113;-80
2022/11/01 08:53:54;;;;;;;21.77;15.65;;;;;;;17.89;47.18;100288.00;5010014;28;20026;-79
2022/11/01 08:56:20;;;;;;;16.58;12.63;;;;;;;17.73;47.09;100244.66;4993201;28;20041;-79
2022/11/01 08:58:48;;;;;;;24.70;14.68;;;;;;;18.46;47.04;100342.59;4997062;28;20022;-78
2022/11/01 09:01:13;;;;;;;19.55;14.85;;;;;;;18.37;46.92;100333.97;5014481;28;20112;-78
2022/11/01 09:03:39;;;;;;;20.58;14.63;;;;;;;18.42;46.64;100310.09;5009221;28;20116;-79
2022/11/01 09:06:04;;;;;;;20.25;13.82;;;;;;;17.97;46.57;100253.88;5011342;28;20155;-80
2022/11/01 09:08:30;;;;;;;18.58;12.60;;;;;;;18.04;46.47;100229.81;5006160;28;20049;-79
2022/11/01 09:10:59;;;;;;;14.10;10.68;;;;;;;18.44;46.42;100270.59;5008039;28;20052;-79
2022/11/01 09:13:24;;;;;;;15.15;8.20;;;;;;;18.75;46.09;100320.75;5011031;28;20029;-79
2022/11/01 09:15:50;;;;;;;12.05;6.75;;;;;;;18.81;45.88;100322.56;5004973;28;20525;-80
2022/11/01 09:18:16;;;;;;;14.65;9.18;;;;;;;18.77;45.68;100299.94;5005161;28;20515;-79
2022/11/01 09:20:41;;;;;;;13.02;8.60;;;;;;;18.64;45.51;100258.03;5009485;28;20104;-80
2022/11/01 09:23:07;;;;;;;11.35;6.85;;;;;;;19.10;45.33;100323.84;5009602;28;20025;-78
2022/11/01 09:25:33;;;;;;;14.63;10.75;;;;;;;17.94;45.50;100174.16;5009307;28;20474;-79
2022/11/01 09:27:58;;;;;;;14.55;8.13;;;;;;;19.25;45.41;100315.53;5009305;28;20029;-79
2022/11/01 09:30:24;;;;;;;13.18;7.20;;;;;;;19.34;45.17;100323.13;5004318;28;20410;-80
2022/11/01 09:32:50;;;;;;;10.20;6.00;;;;;;;19.02;44.70;100241.97;5008748;28;20410;-79
2022/11/01 09:35:16;;;;;;;11.32;6.22;;;;;;;19.45;44.71;100348.38;4991685;28;20101;-78
2022/11/01 09:37:42;;;;;;;12.63;8.05;;;;;;;19.29;44.40;100269.38;4991522;28;20458;-77
2022/11/01 09:40:09;;;;;;;9.20;6.80;;;;;;;19.44;44.58;100273.63;4997829;28;20091;-79
2022/11/01 09:42:41;;;;;;;11.25;6.40;;;;;;;19.44;44.34;100262.91;5009188;28;20057;-79
2022/11/01 09:45:33;;;;;;;10.23;5.68;;;;;;;19.88;44.13;100302.13;5007930;28;20026;-79
2022/11/01 09:48:01;;;;;;;12.00;7.20;;;;;;;19.42;43.91;100220.28;5010541;28;20101;-79
2022/11/01 09:50:32;;;;;;;11.20;7.38;;;;;;;18.74;43.81;100089.03;5008369;28;21289;-79
2022/11/01 09:52:59;;;;;;;12.10;6.70;;;;;;;19.50;43.60;100193.22;4997293;28;20479;-78
2022/11/01 09:55:44;;;;;;;11.15;8.85;;;;;;;19.64;43.63;100200.09;4991212;28;20031;-79
2022/11/01 09:58:29;;;;;;;11.00;6.30;;;;;;;20.28;43.48;100289.97;5003569;28;20099;-78
2022/11/01 10:01:37;;;;;;;31.63;25.90;;;;;;;20.34;43.38;100287.44;5007851;28;20041;-78
2022/11/01 10:04:22;;;;;;;11.63;8.15;;;;;;;20.44;43.15;100274.38;4997331;28;20426;-80
2022/11/01 10:07:15;;;;;;;11.30;6.30;;;;;;;20.50;42.97;100282.34;4994361;28;20045;-80
2022/11/01 10:09:52;;;;;;;12.18;7.28;;;;;;;20.59;43.06;100275.63;4995796;28;20034;-79
2022/11/01 10:12:32;;;;;;;9.80;5.93;;;;;;;20.63;42.67;100266.06;5009149;28;20506;-78
2022/11/01 10:15:11;;;;;;;15.98;12.02;;;;;;;20.21;42.63;100191.88;5009180;28;20060;-79
2022/11/01 10:17:52;;;;;;;9.32;6.03;;;;;;;20.72;42.51;100261.22;4991149;28;20034;-78
2022/11/01 10:20:26;;;;;;;13.13;6.03;;;;;;;20.77;42.27;100265.91;4991146;28;20503;-79
2022/11/01 10:22:52;;;;;;;8.93;6.00;;;;;;;20.31;42.17;100187.63;4991499;28;20030;-79
2022/11/01 10:25:30;;;;;;;9.55;5.82;;;;;;;20.88;42.24;100257.91;4991847;28;20092;-79
2022/11/01 10:28:18;;;;;;;11.50;5.75;;;;;;;20.93;42.11;100250.00;5015627;28;20034;-79
2022/11/01 10:30:54;;;;;;;9.05;5.22;;;;;;;20.52;41.67;100182.84;5013354;28;20036;-79
2022/11/01 10:33:22;;;;;;;7.95;5.07;;;;;;;21.03;41.51;100251.31;5012797;28;20061;-80
2022/11/01 10:36:12;;;;;;;14.32;6.55;;;;;;;21.07;41.63;100247.13;5014254;28;20491;-79
2022/11/01 10:38:53;;;;;;;8.07;5.68;;;;;;;20.85;41.42;100198.50;4993319;28;20471;-80
2022/11/01 10:41:41;;;;;;;8.48;5.15;;;;;;;21.16;41.32;100238.50;4994365;28;20109;-79
2022/11/01 10:44:25;;;;;;;9.23;4.57;;;;;;;20.73;41.24;100163.56;4994004;28;20110;-79
2022/11/01 10:46:52;;;;;;;7.95;5.05;;;;;;;20.52;41.04;100129.19;5010748;28;20512;-78
2022/11/01 10:49:30;;;;;;;10.45;6.05;;;;;;;20.60;40.98;100112.78;5008141;28;20120;-79
2022/11/01 10:52:03;;;;;;;8.43;4.90;;;;;;;21.32;41.13;100222.78;5013241;28;20094;-79
2022/11/01 10:54:34;;;;;;;9.32;5.13;;;;;;;20.62;41.01;100113.34;5012470;28;20018;-79
2022/11/01 10:57:03;;;;;;;11.07;5.43;;;;;;;21.37;40.72;100222.91;5013377;28;20449;-79
2022/11/01 10:59:35;;;;;;;12.57;5.45;;;;;;;20.78;40.83;100123.44;5012348;28;20022;-79
2022/11/01 11:02:05;;;;;;;11.43;5.35;;;;;;;21.35;40.73;100214.28;5014925;28;20052;-80
2022/11/01 11:04:30;;;;;;;7.57;4.65;;;;;;;20.70;40.59;100104.97;5011880;28;20026;-79
2022/11/01 11:06:56;;;;;;;9.65;5.50;;;;;;;20.70;40.75;100115.72;5013458;28;20542;-79
2022/11/01 11:09:31;;;;;;;11.48;5.20;;;;;;;21.34;40.88;100201.91;5011170;28;20021;-80
2022/11/01 11:12:20;;;;;;;8.20;6.18;;;;;;;21.32;40.91;100202.13;4993720;28;20038;-79
2022/11/01 11:14:55;;;;;;;8.45;5.97;;;;;;;21.03;41.03;100173.44;5011500;28;20052;-79
2022/11/01 11:17:29;;;;;;;9.90;4.95;;;;;;;20.92;40.78;100132.13;5008502;28;20116;-80
2022/11/01 11:20:00;;;;;;;11.40;5.35;;;;;;;21.13;40.83;100162.97;5007208;28;20034;-79
2022/11/01 11:22:26;;;;;;;9.98;5.90;;;;;;;21.14;40.69;100165.41;5010790;28;20076;-80
2022/11/01 11:24:57;;;;;;;13.10;5.88;;;;;;;20.66;40.80;100095.75;5010538;28;20462;-79
2022/11/01 11:27:27;;;;;;;15.00;10.20;;;;;;;21.01;41.05;100143.34;5010101;28;20037;-80
2022/11/01 11:30:05;;;;;;;9.88;6.28;;;;;;;20.52;40.89;100068.31;5007944;28;20029;-79
2022/11/01 11:32:37;;;;;;;11.52;5.30;;;;;;;19.84;40.63;99944.50;5002899;28;20433;-77
2022/11/01 11:35:19;;;;;;;8.35;6.63;;;;;;;21.29;40.65;100178.41;5009949;28;20057;-79
2022/11/01 11:38:03;;;;;;;13.05;5.65;;;;;;;21.00;40.68;100130.97;5020273;28;20037;-78